sensor_id;sensor_type;location;lat;lon;timestamp;P1;durP1;ratioP1;P2;durP2;ratioP2
29030;SDS011;16122;50.236;11.734;2024-01-15T00:02:08;7.30;;;5.60;;
29030;SDS011;16122;50.236;11.734;2024-01-15T00:04:38;7.83;;;5.77;;
29030;SDS011;16122;50.236;11.734;2024-01-15T00:07:04;6.87;;;5.50;;
29030;SDS011;16122;50.236;11.734;2024-01-15T00:09:31;6.73;;;4.87;;
29030;SDS011;16122;50.236;11.734;2024-01-15T00:11:57;7.77;;;6.00;;
29030;SDS011;16122;50.236;11.734;2024-01-15T00:14:23;8.93;;;5.80;;
29030;SDS011;16122;50.236;11.734;2024-01-15T00:16:49;8.33;;;5.57;;
29030;SDS011;16122;50.236;11.734;2024-01-15T00:19:16;7.60;;;6.03;;
29030;SDS011;16122;50.236;11.734;2024-01-15T00:21:43;6.60;;;5.50;;
29030;SDS011;16122;50.236;11.734;2024-01-15T00:24:09;10.63;;;5.93;;
29030;SDS011;16122;50.236;11.734;2024-01-15T00:26:35;6.53;;;5.20;;
29030;SDS011;16122;50.236;11.734;2024-01-15T00:29:01;6.13;;;5.40;;
29030;SDS011;16122;50.236;11.734;2024-01-15T00:31:28;5.93;;;5.10;;
29030;SDS011;16122;50.236;11.734;2024-01-15T00:33:55;7.70;;;5.40;;
29030;SDS011;16122;50.236;11.734;2024-01-15T00:36:22;9.53;;;6.50;;
29030;SDS011;16122;50.236;11.734;2024-01-15T00:38:48;5.80;;;4.90;;
29030;SDS011;16122;50.236;11.734;2024-01-15T00:41:14;6.30;;;5.27;;
29030;SDS011;16122;50.236;11.734;2024-01-15T00:43:40;6.60;;;4.80;;
29030;SDS011;16122;50.236;11.734;2024-01-15T00:46:06;7.37;;;5.40;;
29030;SDS011;16122;50.236;11.734;2024-01-15T00:48:32;8.30;;;5.60;;
29030;SDS011;16122;50.236;11.734;2024-01-15T00:50:58;7.97;;;5.40;;
29030;SDS011;16122;50.236;11.734;2024-01-15T00:53:25;6.50;;;5.10;;
29030;SDS011;16122;50.236;11.734;2024-01-15T00:55:51;7.93;;;5.60;;
29030;SDS011;16122;50.236;11.734;2024-01-15T00:58:18;9.97;;;6.40;;
29030;SDS011;16122;50.236;11.734;2024-01-15T01:00:44;8.40;;;5.40;;
29030;SDS011;16122;50.236;11.734;2024-01-15T01:03:10;9.57;;;6.57;;
29030;SDS011;16122;50.236;11.734;2024-01-15T01:05:36;9.50;;;6.27;;
29030;SDS011;16122;50.236;11.734;2024-01-15T01:08:02;6.80;;;5.17;;
29030;SDS011;16122;50.236;11.734;2024-01-15T01:10:28;9.27;;;6.57;;
29030;SDS011;16122;50.236;11.734;2024-01-15T01:12:54;7.10;;;5.60;;
29030;SDS011;16122;50.236;11.734;2024-01-15T01:15:20;8.87;;;6.23;;
29030;SDS011;16122;50.236;11.734;2024-01-15T01:17:46;8.03;;;6.37;;
29030;SDS011;16122;50.236;11.734;2024-01-15T01:20:12;7.93;;;6.67;;
29030;SDS011;16122;50.236;11.734;2024-01-15T01:22:40;9.20;;;6.77;;
29030;SDS011;16122;50.236;11.734;2024-01-15T01:25:06;9.57;;;7.00;;
29030;SDS011;16122;50.236;11.734;2024-01-15T01:27:32;9.53;;;7.30;;
29030;SDS011;16122;50.236;11.734;2024-01-15T01:29:58;9.43;;;6.83;;
29030;SDS011;16122;50.236;11.734;2024-01-15T01:32:24;10.23;;;7.30;;
29030;SDS011;16122;50.236;11.734;2024-01-15T01:34:51;10.20;;;7.30;;
29030;SDS011;16122;50.236;11.734;2024-01-15T01:37:17;9.07;;;6.30;;
29030;SDS011;16122;50.236;11.734;2024-01-15T01:39:44;10.80;;;6.87;;
29030;SDS011;16122;50.236;11.734;2024-01-15T01:42:10;8.43;;;6.30;;
29030;SDS011;16122;50.236;11.734;2024-01-15T01:44:36;7.73;;;6.20;;
29030;SDS011;16122;50.236;11.734;2024-01-15T01:47:02;10.60;;;6.70;;
29030;SDS011;16122;50.236;11.734;2024-01-15T01:49:30;9.80;;;6.43;;
29030;SDS011;16122;50.236;11.734;2024-01-15T01:51:57;9.40;;;6.90;;
29030;SDS011;16122;50.236;11.734;2024-01-15T01:54:28;10.10;;;7.17;;
29030;SDS011;16122;50.236;11.734;2024-01-15T01:56:56;9.33;;;6.93;;
29030;SDS011;16122;50.236;11.734;2024-01-15T01:59:23;8.03;;;6.10;;
29030;SDS011;16122;50.236;11.734;2024-01-15T02:01:52;8.07;;;6.07;;
29030;SDS011;16122;50.236;11.734;2024-01-15T02:04:20;9.03;;;6.97;;
29030;SDS011;16122;50.236;11.734;2024-01-15T02:06:50;8.63;;;7.00;;
29030;SDS011;16122;50.236;11.734;2024-01-15T02:09:17;7.63;;;6.50;;
29030;SDS011;16122;50.236;11.734;2024-01-15T02:11:43;9.40;;;7.03;;
29030;SDS011;16122;50.236;11.734;2024-01-15T02:14:11;8.77;;;6.77;;
29030;SDS011;16122;50.236;11.734;2024-01-15T02:16:37;9.40;;;7.23;;
29030;SDS011;16122;50.236;11.734;2024-01-15T02:19:03;8.50;;;6.47;;
29030;SDS011;16122;50.236;11.734;2024-01-15T02:21:29;8.70;;;6.80;;
29030;SDS011;16122;50.236;11.734;2024-01-15T02:23:56;10.73;;;7.50;;
29030;SDS011;16122;50.236;11.734;2024-01-15T02:26:22;9.17;;;6.47;;
29030;SDS011;16122;50.236;11.734;2024-01-15T02:28:48;9.80;;;7.43;;
29030;SDS011;16122;50.236;11.734;2024-01-15T02:31:15;7.90;;;6.40;;
29030;SDS011;16122;50.236;11.734;2024-01-15T02:33:42;11.50;;;7.50;;
29030;SDS011;16122;50.236;11.734;2024-01-15T02:36:08;9.00;;;6.87;;
29030;SDS011;16122;50.236;11.734;2024-01-15T02:38:34;9.10;;;6.77;;
29030;SDS011;16122;50.236;11.734;2024-01-15T02:41:00;10.20;;;6.87;;
29030;SDS011;16122;50.236;11.734;2024-01-15T02:43:26;9.00;;;6.40;;
29030;SDS011;16122;50.236;11.734;2024-01-15T02:45:52;9.87;;;6.60;;
29030;SDS011;16122;50.236;11.734;2024-01-15T02:48:18;10.00;;;6.10;;
29030;SDS011;16122;50.236;11.734;2024-01-15T02:50:43;9.67;;;7.20;;
29030;SDS011;16122;50.236;11.734;2024-01-15T02:53:09;7.80;;;6.00;;
29030;SDS011;16122;50.236;11.734;2024-01-15T02:55:35;8.93;;;6.60;;
29030;SDS011;16122;50.236;11.734;2024-01-15T02:58:00;9.23;;;6.50;;
29030;SDS011;16122;50.236;11.734;2024-01-15T03:00:26;9.27;;;6.53;;
29030;SDS011;16122;50.236;11.734;2024-01-15T03:02:52;9.40;;;7.23;;
29030;SDS011;16122;50.236;11.734;2024-01-15T03:05:18;6.77;;;5.37;;
29030;SDS011;16122;50.236;11.734;2024-01-15T03:07:44;8.80;;;5.83;;
29030;SDS011;16122;50.236;11.734;2024-01-15T03:10:09;7.93;;;6.37;;
29030;SDS011;16122;50.236;11.734;2024-01-15T03:12:35;8.37;;;6.27;;
29030;SDS011;16122;50.236;11.734;2024-01-15T03:15:01;7.90;;;5.57;;
29030;SDS011;16122;50.236;11.734;2024-01-15T03:17:27;6.37;;;5.40;;
29030;SDS011;16122;50.236;11.734;2024-01-15T03:19:53;8.73;;;6.20;;
29030;SDS011;16122;50.236;11.734;2024-01-15T03:22:19;10.20;;;6.67;;
29030;SDS011;16122;50.236;11.734;2024-01-15T03:24:45;8.27;;;6.10;;
29030;SDS011;16122;50.236;11.734;2024-01-15T03:27:10;8.60;;;6.80;;
29030;SDS011;16122;50.236;11.734;2024-01-15T03:29:36;7.93;;;6.23;;
29030;SDS011;16122;50.236;11.734;2024-01-15T03:32:02;7.50;;;5.67;;
29030;SDS011;16122;50.236;11.734;2024-01-15T03:34:28;7.97;;;5.53;;
29030;SDS011;16122;50.236;11.734;2024-01-15T03:36:54;8.33;;;6.07;;
29030;SDS011;16122;50.236;11.734;2024-01-15T03:39:20;8.77;;;6.30;;
29030;SDS011;16122;50.236;11.734;2024-01-15T03:41:46;7.77;;;6.50;;
29030;SDS011;16122;50.236;11.734;2024-01-15T03:44:11;8.07;;;6.10;;
29030;SDS011;16122;50.236;11.734;2024-01-15T03:46:37;8.43;;;5.87;;
29030;SDS011;16122;50.236;11.734;2024-01-15T03:49:03;8.87;;;6.53;;
29030;SDS011;16122;50.236;11.734;2024-01-15T03:51:29;8.07;;;6.37;;
29030;SDS011;16122;50.236;11.734;2024-01-15T03:53:54;8.63;;;5.80;;
29030;SDS011;16122;50.236;11.734;2024-01-15T03:56:20;5.93;;;5.23;;
29030;SDS011;16122;50.236;11.734;2024-01-15T03:58:46;8.40;;;6.27;;
29030;SDS011;16122;50.236;11.734;2024-01-15T04:01:12;8.97;;;6.30;;
29030;SDS011;16122;50.236;11.734;2024-01-15T04:03:39;8.43;;;5.93;;
29030;SDS011;16122;50.236;11.734;2024-01-15T04:06:05;8.20;;;6.83;;
29030;SDS011;16122;50.236;11.734;2024-01-15T04:08:31;10.03;;;7.00;;
29030;SDS011;16122;50.236;11.734;2024-01-15T04:10:56;9.57;;;7.00;;
29030;SDS011;16122;50.236;11.734;2024-01-15T04:13:22;9.13;;;6.50;;
29030;SDS011;16122;50.236;11.734;2024-01-15T04:15:48;9.50;;;7.30;;
29030;SDS011;16122;50.236;11.734;2024-01-15T04:18:15;9.90;;;7.23;;
29030;SDS011;16122;50.236;11.734;2024-01-15T04:20:42;9.10;;;7.00;;
29030;SDS011;16122;50.236;11.734;2024-01-15T04:23:08;9.10;;;7.70;;
29030;SDS011;16122;50.236;11.734;2024-01-15T04:25:34;10.10;;;6.93;;
29030;SDS011;16122;50.236;11.734;2024-01-15T04:28:00;10.30;;;6.80;;
29030;SDS011;16122;50.236;11.734;2024-01-15T04:30:26;10.50;;;7.17;;
29030;SDS011;16122;50.236;11.734;2024-01-15T04:32:52;9.50;;;7.07;;
29030;SDS011;16122;50.236;11.734;2024-01-15T04:35:18;9.97;;;7.17;;
29030;SDS011;16122;50.236;11.734;2024-01-15T04:37:44;10.60;;;7.83;;
29030;SDS011;16122;50.236;11.734;2024-01-15T04:40:09;10.37;;;7.57;;
29030;SDS011;16122;50.236;11.734;2024-01-15T04:42:36;10.53;;;6.90;;
29030;SDS011;16122;50.236;11.734;2024-01-15T04:45:02;9.83;;;7.40;;
29030;SDS011;16122;50.236;11.734;2024-01-15T04:47:28;13.37;;;8.00;;
29030;SDS011;16122;50.236;11.734;2024-01-15T04:49:54;11.13;;;7.70;;
29030;SDS011;16122;50.236;11.734;2024-01-15T04:52:20;9.37;;;7.07;;
29030;SDS011;16122;50.236;11.734;2024-01-15T04:54:46;10.50;;;7.57;;
29030;SDS011;16122;50.236;11.734;2024-01-15T04:57:12;9.73;;;7.53;;
29030;SDS011;16122;50.236;11.734;2024-01-15T04:59:37;11.30;;;7.73;;
29030;SDS011;16122;50.236;11.734;2024-01-15T05:02:04;9.87;;;7.50;;
29030;SDS011;16122;50.236;11.734;2024-01-15T05:04:30;10.60;;;7.43;;
29030;SDS011;16122;50.236;11.734;2024-01-15T05:06:56;8.30;;;6.73;;
29030;SDS011;16122;50.236;11.734;2024-01-15T05:09:22;9.87;;;6.30;;
29030;SDS011;16122;50.236;11.734;2024-01-15T05:11:47;9.33;;;6.33;;
29030;SDS011;16122;50.236;11.734;2024-01-15T05:14:13;9.00;;;6.30;;
29030;SDS011;16122;50.236;11.734;2024-01-15T05:16:39;8.80;;;7.00;;
29030;SDS011;16122;50.236;11.734;2024-01-15T05:19:12;9.53;;;7.27;;
29030;SDS011;16122;50.236;11.734;2024-01-15T05:21:37;7.70;;;5.97;;
29030;SDS011;16122;50.236;11.734;2024-01-15T05:24:03;9.00;;;5.60;;
29030;SDS011;16122;50.236;11.734;2024-01-15T05:26:29;7.73;;;5.97;;
29030;SDS011;16122;50.236;11.734;2024-01-15T05:28:55;8.50;;;5.70;;
29030;SDS011;16122;50.236;11.734;2024-01-15T05:31:21;9.13;;;5.70;;
29030;SDS011;16122;50.236;11.734;2024-01-15T05:33:47;7.03;;;5.70;;
29030;SDS011;16122;50.236;11.734;2024-01-15T05:36:13;6.23;;;5.13;;
29030;SDS011;16122;50.236;11.734;2024-01-15T05:38:38;9.30;;;5.20;;
29030;SDS011;16122;50.236;11.734;2024-01-15T05:41:05;8.60;;;5.10;;
29030;SDS011;16122;50.236;11.734;2024-01-15T05:43:31;5.40;;;4.43;;
29030;SDS011;16122;50.236;11.734;2024-01-15T05:45:56;6.23;;;4.67;;
29030;SDS011;16122;50.236;11.734;2024-01-15T05:48:23;7.07;;;4.70;;
29030;SDS011;16122;50.236;11.734;2024-01-15T05:50:49;8.00;;;5.23;;
29030;SDS011;16122;50.236;11.734;2024-01-15T05:53:14;7.30;;;4.57;;
29030;SDS011;16122;50.236;11.734;2024-01-15T05:55:40;6.63;;;5.50;;
29030;SDS011;16122;50.236;11.734;2024-01-15T05:58:06;6.73;;;4.40;;
29030;SDS011;16122;50.236;11.734;2024-01-15T06:00:32;5.17;;;4.23;;
29030;SDS011;16122;50.236;11.734;2024-01-15T06:02:59;4.93;;;4.10;;
29030;SDS011;16122;50.236;11.734;2024-01-15T06:05:25;10.37;;;5.30;;
29030;SDS011;16122;50.236;11.734;2024-01-15T06:07:51;7.13;;;4.57;;
29030;SDS011;16122;50.236;11.734;2024-01-15T06:10:17;6.73;;;4.80;;
29030;SDS011;16122;50.236;11.734;2024-01-15T06:12:43;5.80;;;4.30;;
29030;SDS011;16122;50.236;11.734;2024-01-15T06:15:09;6.10;;;4.63;;
29030;SDS011;16122;50.236;11.734;2024-01-15T06:17:35;7.43;;;4.90;;
29030;SDS011;16122;50.236;11.734;2024-01-15T06:20:01;8.60;;;4.53;;
29030;SDS011;16122;50.236;11.734;2024-01-15T06:22:28;6.30;;;4.40;;
29030;SDS011;16122;50.236;11.734;2024-01-15T06:24:54;7.03;;;4.73;;
29030;SDS011;16122;50.236;11.734;2024-01-15T06:27:21;7.40;;;5.63;;
29030;SDS011;16122;50.236;11.734;2024-01-15T06:29:47;5.90;;;4.80;;
29030;SDS011;16122;50.236;11.734;2024-01-15T06:32:13;7.33;;;5.20;;
29030;SDS011;16122;50.236;11.734;2024-01-15T06:34:39;6.57;;;5.37;;
29030;SDS011;16122;50.236;11.734;2024-01-15T06:37:05;7.00;;;5.80;;
29030;SDS011;16122;50.236;11.734;2024-01-15T06:39:31;7.40;;;5.03;;
29030;SDS011;16122;50.236;11.734;2024-01-15T06:41:57;9.97;;;5.57;;
29030;SDS011;16122;50.236;11.734;2024-01-15T06:44:23;6.70;;;5.50;;
29030;SDS011;16122;50.236;11.734;2024-01-15T06:46:48;8.47;;;5.67;;
29030;SDS011;16122;50.236;11.734;2024-01-15T06:49:14;6.77;;;5.10;;
29030;SDS011;16122;50.236;11.734;2024-01-15T06:51:40;5.97;;;4.83;;
29030;SDS011;16122;50.236;11.734;2024-01-15T06:54:07;7.60;;;5.50;;
29030;SDS011;16122;50.236;11.734;2024-01-15T06:56:32;6.10;;;4.57;;
29030;SDS011;16122;50.236;11.734;2024-01-15T06:58:58;6.00;;;4.60;;
29030;SDS011;16122;50.236;11.734;2024-01-15T07:01:24;5.30;;;4.60;;
29030;SDS011;16122;50.236;11.734;2024-01-15T07:03:50;5.43;;;4.77;;
29030;SDS011;16122;50.236;11.734;2024-01-15T07:06:15;6.33;;;4.90;;
29030;SDS011;16122;50.236;11.734;2024-01-15T07:08:42;7.20;;;5.80;;
29030;SDS011;16122;50.236;11.734;2024-01-15T07:11:08;7.30;;;5.20;;
29030;SDS011;16122;50.236;11.734;2024-01-15T07:13:35;5.47;;;4.77;;
29030;SDS011;16122;50.236;11.734;2024-01-15T07:16:01;7.03;;;4.83;;
29030;SDS011;16122;50.236;11.734;2024-01-15T07:18:27;6.20;;;4.63;;
29030;SDS011;16122;50.236;11.734;2024-01-15T07:20:53;5.30;;;4.70;;
29030;SDS011;16122;50.236;11.734;2024-01-15T07:23:19;6.67;;;4.77;;
29030;SDS011;16122;50.236;11.734;2024-01-15T07:25:45;5.73;;;4.87;;
29030;SDS011;16122;50.236;11.734;2024-01-15T07:28:11;4.33;;;3.77;;
29030;SDS011;16122;50.236;11.734;2024-01-15T07:30:36;6.10;;;4.63;;
29030;SDS011;16122;50.236;11.734;2024-01-15T07:33:04;5.60;;;4.47;;
29030;SDS011;16122;50.236;11.734;2024-01-15T07:35:30;5.70;;;5.03;;
29030;SDS011;16122;50.236;11.734;2024-01-15T07:37:57;7.63;;;5.67;;
29030;SDS011;16122;50.236;11.734;2024-01-15T07:40:23;4.87;;;4.27;;
29030;SDS011;16122;50.236;11.734;2024-01-15T07:42:50;6.50;;;4.70;;
29030;SDS011;16122;50.236;11.734;2024-01-15T07:45:16;6.63;;;4.40;;
29030;SDS011;16122;50.236;11.734;2024-01-15T07:47:42;5.90;;;4.17;;
29030;SDS011;16122;50.236;11.734;2024-01-15T07:50:08;4.83;;;3.93;;
29030;SDS011;16122;50.236;11.734;2024-01-15T07:52:34;5.50;;;4.27;;
29030;SDS011;16122;50.236;11.734;2024-01-15T07:55:00;5.37;;;4.10;;
29030;SDS011;16122;50.236;11.734;2024-01-15T07:57:26;4.27;;;3.77;;
29030;SDS011;16122;50.236;11.734;2024-01-15T07:59:52;4.00;;;3.50;;
29030;SDS011;16122;50.236;11.734;2024-01-15T08:02:17;4.13;;;3.73;;
29030;SDS011;16122;50.236;11.734;2024-01-15T08:04:43;5.30;;;3.87;;
29030;SDS011;16122;50.236;11.734;2024-01-15T08:07:10;5.50;;;4.17;;
29030;SDS011;16122;50.236;11.734;2024-01-15T08:09:35;4.00;;;3.60;;
29030;SDS011;16122;50.236;11.734;2024-01-15T08:12:01;5.70;;;4.53;;
29030;SDS011;16122;50.236;11.734;2024-01-15T08:14:27;4.00;;;3.27;;
29030;SDS011;16122;50.236;11.734;2024-01-15T08:16:53;3.57;;;3.13;;
29030;SDS011;16122;50.236;11.734;2024-01-15T08:19:19;4.30;;;3.40;;
29030;SDS011;16122;50.236;11.734;2024-01-15T08:21:48;3.60;;;2.67;;
29030;SDS011;16122;50.236;11.734;2024-01-15T08:24:14;5.20;;;3.60;;
29030;SDS011;16122;50.236;11.734;2024-01-15T08:26:40;4.80;;;3.50;;
29030;SDS011;16122;50.236;11.734;2024-01-15T08:29:06;3.97;;;3.57;;
29030;SDS011;16122;50.236;11.734;2024-01-15T08:31:31;4.60;;;4.00;;
29030;SDS011;16122;50.236;11.734;2024-01-15T08:33:57;5.73;;;4.03;;
29030;SDS011;16122;50.236;11.734;2024-01-15T08:36:24;4.27;;;3.17;;
29030;SDS011;16122;50.236;11.734;2024-01-15T08:38:50;4.23;;;3.63;;
29030;SDS011;16122;50.236;11.734;2024-01-15T08:41:16;4.03;;;3.63;;
29030;SDS011;16122;50.236;11.734;2024-01-15T08:43:42;4.50;;;3.60;;
29030;SDS011;16122;50.236;11.734;2024-01-15T08:46:08;3.20;;;2.80;;
29030;SDS011;16122;50.236;11.734;2024-01-15T08:48:33;4.00;;;3.60;;
29030;SDS011;16122;50.236;11.734;2024-01-15T08:50:59;3.70;;;3.30;;
29030;SDS011;16122;50.236;11.734;2024-01-15T08:53:25;5.27;;;4.13;;
29030;SDS011;16122;50.236;11.734;2024-01-15T08:55:52;5.27;;;3.60;;
29030;SDS011;16122;50.236;11.734;2024-01-15T08:58:18;4.30;;;3.70;;
29030;SDS011;16122;50.236;11.734;2024-01-15T09:00:43;3.73;;;3.37;;
29030;SDS011;16122;50.236;11.734;2024-01-15T09:03:09;3.03;;;2.63;;
29030;SDS011;16122;50.236;11.734;2024-01-15T09:05:35;6.03;;;3.70;;
29030;SDS011;16122;50.236;11.734;2024-01-15T09:08:01;5.27;;;3.27;;
29030;SDS011;16122;50.236;11.734;2024-01-15T09:10:27;3.40;;;3.10;;
29030;SDS011;16122;50.236;11.734;2024-01-15T09:12:53;4.93;;;3.90;;
29030;SDS011;16122;50.236;11.734;2024-01-15T09:15:18;4.47;;;3.67;;
29030;SDS011;16122;50.236;11.734;2024-01-15T09:17:45;4.30;;;3.40;;
29030;SDS011;16122;50.236;11.734;2024-01-15T09:20:11;3.90;;;3.33;;
29030;SDS011;16122;50.236;11.734;2024-01-15T09:22:40;4.80;;;3.50;;
29030;SDS011;16122;50.236;11.734;2024-01-15T09:25:08;4.00;;;3.60;;
29030;SDS011;16122;50.236;11.734;2024-01-15T09:27:37;5.23;;;3.50;;
29030;SDS011;16122;50.236;11.734;2024-01-15T09:30:06;4.83;;;3.70;;
29030;SDS011;16122;50.236;11.734;2024-01-15T09:32:33;3.70;;;3.03;;
29030;SDS011;16122;50.236;11.734;2024-01-15T09:34:59;3.70;;;3.20;;
29030;SDS011;16122;50.236;11.734;2024-01-15T09:37:25;5.73;;;3.47;;
29030;SDS011;16122;50.236;11.734;2024-01-15T09:39:50;5.17;;;3.73;;
29030;SDS011;16122;50.236;11.734;2024-01-15T09:42:16;3.53;;;3.23;;
29030;SDS011;16122;50.236;11.734;2024-01-15T09:44:43;4.80;;;3.80;;
29030;SDS011;16122;50.236;11.734;2024-01-15T09:47:10;3.90;;;3.33;;
29030;SDS011;16122;50.236;11.734;2024-01-15T09:49:37;4.33;;;3.27;;
29030;SDS011;16122;50.236;11.734;2024-01-15T09:52:05;3.17;;;2.87;;
29030;SDS011;16122;50.236;11.734;2024-01-15T09:54:33;3.90;;;3.50;;
29030;SDS011;16122;50.236;11.734;2024-01-15T09:57:00;4.10;;;3.53;;
29030;SDS011;16122;50.236;11.734;2024-01-15T09:59:26;5.17;;;4.10;;
29030;SDS011;16122;50.236;11.734;2024-01-15T10:01:53;4.03;;;3.50;;
29030;SDS011;16122;50.236;11.734;2024-01-15T10:04:20;5.07;;;3.30;;
29030;SDS011;16122;50.236;11.734;2024-01-15T10:06:46;5.87;;;4.03;;
29030;SDS011;16122;50.236;11.734;2024-01-15T10:09:15;4.67;;;3.27;;
29030;SDS011;16122;50.236;11.734;2024-01-15T10:11:43;3.70;;;3.33;;
29030;SDS011;16122;50.236;11.734;2024-01-15T10:14:09;4.20;;;3.57;;
29030;SDS011;16122;50.236;11.734;2024-01-15T10:16:39;4.23;;;3.80;;
29030;SDS011;16122;50.236;11.734;2024-01-15T10:19:05;3.47;;;3.13;;
29030;SDS011;16122;50.236;11.734;2024-01-15T10:21:32;4.03;;;3.13;;
29030;SDS011;16122;50.236;11.734;2024-01-15T10:24:00;3.47;;;2.73;;
29030;SDS011;16122;50.236;11.734;2024-01-15T10:26:26;3.90;;;3.50;;
29030;SDS011;16122;50.236;11.734;2024-01-15T10:28:52;3.60;;;2.83;;
29030;SDS011;16122;50.236;11.734;2024-01-15T10:31:18;4.53;;;4.00;;
29030;SDS011;16122;50.236;11.734;2024-01-15T10:33:50;5.97;;;3.83;;
29030;SDS011;16122;50.236;11.734;2024-01-15T10:36:16;4.03;;;2.90;;
29030;SDS011;16122;50.236;11.734;2024-01-15T10:38:43;5.33;;;4.03;;
29030;SDS011;16122;50.236;11.734;2024-01-15T10:41:09;4.97;;;4.10;;
29030;SDS011;16122;50.236;11.734;2024-01-15T10:43:35;8.33;;;5.13;;
29030;SDS011;16122;50.236;11.734;2024-01-15T10:46:01;8.60;;;6.57;;
29030;SDS011;16122;50.236;11.734;2024-01-15T10:48:28;12.40;;;9.10;;
29030;SDS011;16122;50.236;11.734;2024-01-15T10:50:56;24.43;;;17.07;;
29030;SDS011;16122;50.236;11.734;2024-01-15T10:53:23;39.03;;;28.93;;
29030;SDS011;16122;50.236;11.734;2024-01-15T10:55:50;56.77;;;41.30;;
29030;SDS011;16122;50.236;11.734;2024-01-15T10:58:20;68.33;;;48.27;;
29030;SDS011;16122;50.236;11.734;2024-01-15T11:00:48;71.10;;;48.10;;
29030;SDS011;16122;50.236;11.734;2024-01-15T11:03:14;81.73;;;57.20;;
29030;SDS011;16122;50.236;11.734;2024-01-15T11:05:42;90.57;;;62.20;;
29030;SDS011;16122;50.236;11.734;2024-01-15T11:08:08;96.10;;;68.10;;
29030;SDS011;16122;50.236;11.734;2024-01-15T11:10:42;111.97;;;76.47;;
29030;SDS011;16122;50.236;11.734;2024-01-15T11:15:59;132.47;;;98.73;;
29030;SDS011;16122;50.236;11.734;2024-01-15T11:18:30;142.80;;;104.17;;
29030;SDS011;16122;50.236;11.734;2024-01-15T11:26:33;125.50;;;91.93;;
29030;SDS011;16122;50.236;11.734;2024-01-15T11:29:05;131.13;;;90.33;;
29030;SDS011;16122;50.236;11.734;2024-01-15T11:34:04;124.77;;;82.30;;
29030;SDS011;16122;50.236;11.734;2024-01-15T11:41:55;104.77;;;75.57;;
29030;SDS011;16122;50.236;11.734;2024-01-15T11:44:28;112.03;;;73.77;;
29030;SDS011;16122;50.236;11.734;2024-01-15T11:46:58;110.93;;;70.37;;
29030;SDS011;16122;50.236;11.734;2024-01-15T11:52:18;99.87;;;66.70;;
29030;SDS011;16122;50.236;11.734;2024-01-15T11:54:51;97.47;;;64.10;;
29030;SDS011;16122;50.236;11.734;2024-01-15T12:00:05;86.07;;;59.70;;
29030;SDS011;16122;50.236;11.734;2024-01-15T12:02:41;92.73;;;63.13;;
29030;SDS011;16122;50.236;11.734;2024-01-15T12:05:08;87.43;;;58.13;;
29030;SDS011;16122;50.236;11.734;2024-01-15T12:07:35;77.17;;;55.30;;
29030;SDS011;16122;50.236;11.734;2024-01-15T12:10:02;72.90;;;53.57;;
29030;SDS011;16122;50.236;11.734;2024-01-15T12:12:37;75.10;;;52.50;;
29030;SDS011;16122;50.236;11.734;2024-01-15T12:15:12;80.27;;;53.43;;
29030;SDS011;16122;50.236;11.734;2024-01-15T12:17:39;70.80;;;48.90;;
29030;SDS011;16122;50.236;11.734;2024-01-15T12:20:05;72.10;;;51.03;;
29030;SDS011;16122;50.236;11.734;2024-01-15T12:22:31;71.57;;;48.50;;
29030;SDS011;16122;50.236;11.734;2024-01-15T12:24:57;65.03;;;48.37;;
29030;SDS011;16122;50.236;11.734;2024-01-15T12:27:23;68.13;;;47.60;;
29030;SDS011;16122;50.236;11.734;2024-01-15T12:29:49;67.17;;;45.47;;
29030;SDS011;16122;50.236;11.734;2024-01-15T12:32:15;56.93;;;42.83;;
29030;SDS011;16122;50.236;11.734;2024-01-15T12:34:42;59.23;;;42.17;;
29030;SDS011;16122;50.236;11.734;2024-01-15T12:37:08;58.20;;;41.57;;
29030;SDS011;16122;50.236;11.734;2024-01-15T12:39:34;56.80;;;40.40;;
29030;SDS011;16122;50.236;11.734;2024-01-15T12:42:01;57.47;;;39.47;;
29030;SDS011;16122;50.236;11.734;2024-01-15T12:44:28;53.67;;;38.63;;
29030;SDS011;16122;50.236;11.734;2024-01-15T12:46:54;57.77;;;40.27;;
29030;SDS011;16122;50.236;11.734;2024-01-15T12:49:20;53.87;;;37.73;;
29030;SDS011;16122;50.236;11.734;2024-01-15T12:51:52;53.67;;;37.63;;
29030;SDS011;16122;50.236;11.734;2024-01-15T12:54:25;49.53;;;37.27;;
29030;SDS011;16122;50.236;11.734;2024-01-15T12:56:51;50.03;;;33.57;;
29030;SDS011;16122;50.236;11.734;2024-01-15T12:59:18;45.73;;;34.00;;
29030;SDS011;16122;50.236;11.734;2024-01-15T13:01:44;45.67;;;31.73;;
29030;SDS011;16122;50.236;11.734;2024-01-15T13:04:11;45.80;;;31.70;;
29030;SDS011;16122;50.236;11.734;2024-01-15T13:06:46;42.70;;;32.70;;
29030;SDS011;16122;50.236;11.734;2024-01-15T13:09:11;41.17;;;30.80;;
29030;SDS011;16122;50.236;11.734;2024-01-15T13:11:37;40.70;;;29.53;;
29030;SDS011;16122;50.236;11.734;2024-01-15T13:14:03;40.73;;;30.47;;
29030;SDS011;16122;50.236;11.734;2024-01-15T13:16:29;36.43;;;27.90;;
29030;SDS011;16122;50.236;11.734;2024-01-15T13:18:55;38.33;;;28.50;;
29030;SDS011;16122;50.236;11.734;2024-01-15T13:21:24;39.23;;;29.50;;
29030;SDS011;16122;50.236;11.734;2024-01-15T13:23:50;32.90;;;26.10;;
29030;SDS011;16122;50.236;11.734;2024-01-15T13:26:16;38.20;;;26.20;;
29030;SDS011;16122;50.236;11.734;2024-01-15T13:28:43;34.70;;;26.13;;
29030;SDS011;16122;50.236;11.734;2024-01-15T13:31:09;35.40;;;24.97;;
29030;SDS011;16122;50.236;11.734;2024-01-15T13:33:35;32.57;;;24.57;;
29030;SDS011;16122;50.236;11.734;2024-01-15T13:36:01;34.67;;;24.47;;
29030;SDS011;16122;50.236;11.734;2024-01-15T13:41:28;31.40;;;22.30;;
29030;SDS011;16122;50.236;11.734;2024-01-15T13:43:54;30.73;;;23.00;;
29030;SDS011;16122;50.236;11.734;2024-01-15T13:46:22;33.00;;;23.00;;
29030;SDS011;16122;50.236;11.734;2024-01-15T13:48:49;29.43;;;19.80;;
29030;SDS011;16122;50.236;11.734;2024-01-15T13:51:15;25.47;;;18.73;;
29030;SDS011;16122;50.236;11.734;2024-01-15T13:53:41;24.50;;;18.10;;
29030;SDS011;16122;50.236;11.734;2024-01-15T13:56:07;24.80;;;19.53;;
29030;SDS011;16122;50.236;11.734;2024-01-15T13:58:35;25.30;;;17.77;;
29030;SDS011;16122;50.236;11.734;2024-01-15T14:01:01;23.87;;;17.47;;
29030;SDS011;16122;50.236;11.734;2024-01-15T14:03:29;27.40;;;18.50;;
29030;SDS011;16122;50.236;11.734;2024-01-15T14:05:55;23.50;;;16.50;;
29030;SDS011;16122;50.236;11.734;2024-01-15T14:08:21;26.93;;;17.60;;
29030;SDS011;16122;50.236;11.734;2024-01-15T14:10:46;21.93;;;16.67;;
29030;SDS011;16122;50.236;11.734;2024-01-15T14:13:12;20.60;;;14.43;;
29030;SDS011;16122;50.236;11.734;2024-01-15T14:15:38;19.50;;;14.93;;
29030;SDS011;16122;50.236;11.734;2024-01-15T14:18:04;24.20;;;15.30;;
29030;SDS011;16122;50.236;11.734;2024-01-15T14:20:30;20.60;;;14.80;;
29030;SDS011;16122;50.236;11.734;2024-01-15T14:22:56;18.90;;;14.37;;
29030;SDS011;16122;50.236;11.734;2024-01-15T14:25:22;21.33;;;14.77;;
29030;SDS011;16122;50.236;11.734;2024-01-15T14:27:49;17.90;;;12.50;;
29030;SDS011;16122;50.236;11.734;2024-01-15T14:30:15;16.97;;;12.97;;
29030;SDS011;16122;50.236;11.734;2024-01-15T14:32:44;19.00;;;12.60;;
29030;SDS011;16122;50.236;11.734;2024-01-15T14:35:09;18.17;;;12.73;;
29030;SDS011;16122;50.236;11.734;2024-01-15T14:37:38;15.87;;;11.40;;
29030;SDS011;16122;50.236;11.734;2024-01-15T14:40:08;16.50;;;11.37;;
29030;SDS011;16122;50.236;11.734;2024-01-15T14:42:36;15.37;;;10.03;;
29030;SDS011;16122;50.236;11.734;2024-01-15T14:45:05;12.03;;;9.73;;
29030;SDS011;16122;50.236;11.734;2024-01-15T14:47:37;12.80;;;9.67;;